sensor_id;sensor_type;location;lat;lon;timestamp;P1;durP1;ratioP1;P2;durP2;ratioP2
6860;SDS011;3469;47.060;15.460;2022-10-18T00:01:07;24.50;;;20.40;;
6860;SDS011;3469;47.060;15.460;2022-10-18T00:03:36;26.50;;;19.73;;
6860;SDS011;3469;47.060;15.460;2022-10-18T00:06:05;25.20;;;20.83;;
6860;SDS011;3469;47.060;15.460;2022-10-18T00:08:35;30.60;;;21.93;;
6860;SDS011;3469;47.060;15.460;2022-10-18T00:11:05;26.40;;;21.00;;
6860;SDS011;3469;47.060;15.460;2022-10-18T00:13:34;22.10;;;19.13;;
6860;SDS011;3469;47.060;15.460;2022-10-18T00:16:04;27.73;;;20.87;;
6860;SDS011;3469;47.060;15.460;2022-10-18T00:18:37;22.50;;;20.10;;
6860;SDS011;3469;47.060;15.460;2022-10-18T00:21:09;26.47;;;22.00;;
6860;SDS011;3469;47.060;15.460;2022-10-18T00:23:38;24.57;;;21.07;;
6860;SDS011;3469;47.060;15.460;2022-10-18T00:26:09;27.43;;;20.73;;
6860;SDS011;3469;47.060;15.460;2022-10-18T00:28:39;26.27;;;20.40;;
6860;SDS011;3469;47.060;15.460;2022-10-18T00:31:08;25.97;;;20.37;;
6860;SDS011;3469;47.060;15.460;2022-10-18T00:33:38;25.87;;;21.07;;
6860;SDS011;3469;47.060;15.460;2022-10-18T00:36:07;22.20;;;19.20;;
6860;SDS011;3469;47.060;15.460;2022-10-18T00:38:36;22.30;;;19.73;;
6860;SDS011;3469;47.060;15.460;2022-10-18T00:41:05;26.73;;;20.50;;
6860;SDS011;3469;47.060;15.460;2022-10-18T00:46:24;29.17;;;20.20;;
6860;SDS011;3469;47.060;15.460;2022-10-18T00:48:56;25.50;;;19.90;;
6860;SDS011;3469;47.060;15.460;2022-10-18T00:51:27;28.30;;;21.30;;
6860;SDS011;3469;47.060;15.460;2022-10-18T00:53:58;21.37;;;19.07;;
6860;SDS011;3469;47.060;15.460;2022-10-18T00:56:26;25.73;;;19.43;;
6860;SDS011;3469;47.060;15.460;2022-10-18T00:58:58;23.80;;;19.33;;
6860;SDS011;3469;47.060;15.460;2022-10-18T01:01:29;23.07;;;18.50;;
6860;SDS011;3469;47.060;15.460;2022-10-18T01:03:57;23.50;;;18.53;;
6860;SDS011;3469;47.060;15.460;2022-10-18T01:06:26;24.93;;;21.67;;
6860;SDS011;3469;47.060;15.460;2022-10-18T01:09:04;25.10;;;20.43;;
6860;SDS011;3469;47.060;15.460;2022-10-18T01:11:44;27.60;;;20.87;;
6860;SDS011;3469;47.060;15.460;2022-10-18T01:14:28;24.60;;;19.67;;
6860;SDS011;3469;47.060;15.460;2022-10-18T01:17:07;23.47;;;20.33;;
6860;SDS011;3469;47.060;15.460;2022-10-18T01:20:02;24.77;;;19.23;;
6860;SDS011;3469;47.060;15.460;2022-10-18T01:22:47;22.80;;;19.73;;
6860;SDS011;3469;47.060;15.460;2022-10-18T01:25:22;26.47;;;21.50;;
6860;SDS011;3469;47.060;15.460;2022-10-18T01:27:58;24.50;;;20.03;;
6860;SDS011;3469;47.060;15.460;2022-10-18T01:30:39;22.80;;;20.37;;
6860;SDS011;3469;47.060;15.460;2022-10-18T01:33:29;26.57;;;20.93;;
6860;SDS011;3469;47.060;15.460;2022-10-18T01:36:02;26.77;;;19.80;;
6860;SDS011;3469;47.060;15.460;2022-10-18T01:38:32;27.00;;;20.90;;
6860;SDS011;3469;47.060;15.460;2022-10-18T01:41:02;28.67;;;20.67;;
6860;SDS011;3469;47.060;15.460;2022-10-18T01:43:34;27.07;;;21.10;;
6860;SDS011;3469;47.060;15.460;2022-10-18T01:46:05;25.33;;;19.30;;
6860;SDS011;3469;47.060;15.460;2022-10-18T01:48:35;21.93;;;19.50;;
6860;SDS011;3469;47.060;15.460;2022-10-18T01:51:04;22.50;;;19.90;;
6860;SDS011;3469;47.060;15.460;2022-10-18T01:53:34;22.00;;;19.57;;
6860;SDS011;3469;47.060;15.460;2022-10-18T01:56:15;23.90;;;20.33;;
6860;SDS011;3469;47.060;15.460;2022-10-18T01:58:50;29.33;;;20.27;;
6860;SDS011;3469;47.060;15.460;2022-10-18T02:01:29;22.57;;;19.27;;
6860;SDS011;3469;47.060;15.460;2022-10-18T02:04:03;26.20;;;20.53;;
6860;SDS011;3469;47.060;15.460;2022-10-18T02:06:37;25.33;;;20.30;;
6860;SDS011;3469;47.060;15.460;2022-10-18T02:09:08;26.30;;;20.13;;
6860;SDS011;3469;47.060;15.460;2022-10-18T02:11:41;23.50;;;19.90;;
6860;SDS011;3469;47.060;15.460;2022-10-18T02:14:13;26.00;;;20.33;;
6860;SDS011;3469;47.060;15.460;2022-10-18T02:16:44;23.70;;;19.33;;
6860;SDS011;3469;47.060;15.460;2022-10-18T02:19:17;25.83;;;20.17;;
6860;SDS011;3469;47.060;15.460;2022-10-18T02:21:53;26.00;;;21.30;;
6860;SDS011;3469;47.060;15.460;2022-10-18T02:24:23;24.60;;;19.60;;
6860;SDS011;3469;47.060;15.460;2022-10-18T02:26:54;26.13;;;20.80;;
6860;SDS011;3469;47.060;15.460;2022-10-18T02:29:22;25.93;;;20.57;;
6860;SDS011;3469;47.060;15.460;2022-10-18T02:31:54;24.50;;;19.57;;
6860;SDS011;3469;47.060;15.460;2022-10-18T02:34:27;21.67;;;18.73;;
6860;SDS011;3469;47.060;15.460;2022-10-18T02:36:59;27.20;;;19.30;;
6860;SDS011;3469;47.060;15.460;2022-10-18T02:39:28;23.37;;;19.60;;
6860;SDS011;3469;47.060;15.460;2022-10-18T02:41:58;23.60;;;19.30;;
6860;SDS011;3469;47.060;15.460;2022-10-18T02:44:26;24.40;;;18.40;;
6860;SDS011;3469;47.060;15.460;2022-10-18T02:46:56;23.20;;;18.83;;
6860;SDS011;3469;47.060;15.460;2022-10-18T02:49:24;21.93;;;17.77;;
6860;SDS011;3469;47.060;15.460;2022-10-18T02:51:53;22.87;;;18.97;;
6860;SDS011;3469;47.060;15.460;2022-10-18T02:54:21;21.70;;;17.60;;
6860;SDS011;3469;47.060;15.460;2022-10-18T02:56:50;19.97;;;16.40;;
6860;SDS011;3469;47.060;15.460;2022-10-18T02:59:18;25.33;;;19.77;;
6860;SDS011;3469;47.060;15.460;2022-10-18T03:01:46;25.40;;;18.47;;
6860;SDS011;3469;47.060;15.460;2022-10-18T03:04:16;25.20;;;18.77;;
6860;SDS011;3469;47.060;15.460;2022-10-18T03:06:45;24.60;;;19.73;;
6860;SDS011;3469;47.060;15.460;2022-10-18T03:09:13;28.80;;;21.33;;
6860;SDS011;3469;47.060;15.460;2022-10-18T03:11:42;27.10;;;19.60;;
6860;SDS011;3469;47.060;15.460;2022-10-18T03:14:10;24.00;;;19.10;;
6860;SDS011;3469;47.060;15.460;2022-10-18T03:16:38;24.30;;;21.03;;
6860;SDS011;3469;47.060;15.460;2022-10-18T03:19:07;29.10;;;20.97;;
6860;SDS011;3469;47.060;15.460;2022-10-18T03:21:37;24.20;;;19.60;;
6860;SDS011;3469;47.060;15.460;2022-10-18T03:24:05;26.70;;;20.83;;
6860;SDS011;3469;47.060;15.460;2022-10-18T03:26:33;24.93;;;19.40;;
6860;SDS011;3469;47.060;15.460;2022-10-18T03:29:02;23.00;;;18.97;;
6860;SDS011;3469;47.060;15.460;2022-10-18T03:31:30;30.37;;;20.13;;
6860;SDS011;3469;47.060;15.460;2022-10-18T03:33:59;23.60;;;19.67;;
6860;SDS011;3469;47.060;15.460;2022-10-18T03:36:30;26.83;;;20.40;;
6860;SDS011;3469;47.060;15.460;2022-10-18T03:39:00;23.20;;;18.03;;
6860;SDS011;3469;47.060;15.460;2022-10-18T03:41:29;24.97;;;19.50;;
6860;SDS011;3469;47.060;15.460;2022-10-18T03:43:57;23.07;;;20.13;;
6860;SDS011;3469;47.060;15.460;2022-10-18T03:46:26;27.50;;;20.10;;
6860;SDS011;3469;47.060;15.460;2022-10-18T03:48:54;25.53;;;19.40;;
6860;SDS011;3469;47.060;15.460;2022-10-18T03:51:22;24.80;;;20.50;;
6860;SDS011;3469;47.060;15.460;2022-10-18T03:53:51;25.23;;;20.20;;
6860;SDS011;3469;47.060;15.460;2022-10-18T03:56:21;21.30;;;18.93;;
6860;SDS011;3469;47.060;15.460;2022-10-18T03:58:49;27.17;;;20.57;;
6860;SDS011;3469;47.060;15.460;2022-10-18T04:01:17;29.13;;;19.40;;
6860;SDS011;3469;47.060;15.460;2022-10-18T04:03:46;27.33;;;21.40;;
6860;SDS011;3469;47.060;15.460;2022-10-18T04:06:14;25.90;;;20.77;;
6860;SDS011;3469;47.060;15.460;2022-10-18T04:08:42;28.50;;;21.53;;
6860;SDS011;3469;47.060;15.460;2022-10-18T04:11:11;27.30;;;20.50;;
6860;SDS011;3469;47.060;15.460;2022-10-18T04:13:40;25.43;;;19.63;;
6860;SDS011;3469;47.060;15.460;2022-10-18T04:16:09;26.23;;;19.70;;
6860;SDS011;3469;47.060;15.460;2022-10-18T04:18:37;27.83;;;21.07;;
6860;SDS011;3469;47.060;15.460;2022-10-18T04:21:05;25.10;;;19.80;;
6860;SDS011;3469;47.060;15.460;2022-10-18T04:23:34;25.57;;;19.90;;
6860;SDS011;3469;47.060;15.460;2022-10-18T04:26:04;26.80;;;21.53;;
6860;SDS011;3469;47.060;15.460;2022-10-18T04:28:33;25.57;;;19.80;;
6860;SDS011;3469;47.060;15.460;2022-10-18T04:31:07;25.50;;;20.50;;
6860;SDS011;3469;47.060;15.460;2022-10-18T04:33:36;33.37;;;23.80;;
6860;SDS011;3469;47.060;15.460;2022-10-18T04:36:04;29.37;;;21.33;;
6860;SDS011;3469;47.060;15.460;2022-10-18T04:38:33;27.03;;;21.50;;
6860;SDS011;3469;47.060;15.460;2022-10-18T04:41:01;25.23;;;21.37;;
6860;SDS011;3469;47.060;15.460;2022-10-18T04:43:30;25.60;;;19.93;;
6860;SDS011;3469;47.060;15.460;2022-10-18T04:45:58;25.80;;;20.50;;
6860;SDS011;3469;47.060;15.460;2022-10-18T04:48:28;30.90;;;22.50;;
6860;SDS011;3469;47.060;15.460;2022-10-18T04:50:57;33.30;;;23.73;;
6860;SDS011;3469;47.060;15.460;2022-10-18T04:53:25;28.90;;;22.70;;
6860;SDS011;3469;47.060;15.460;2022-10-18T04:55:53;24.60;;;20.07;;
6860;SDS011;3469;47.060;15.460;2022-10-18T04:58:22;25.07;;;20.70;;
6860;SDS011;3469;47.060;15.460;2022-10-18T05:00:51;31.17;;;22.07;;
6860;SDS011;3469;47.060;15.460;2022-10-18T05:03:19;30.30;;;22.90;;
6860;SDS011;3469;47.060;15.460;2022-10-18T05:05:49;33.53;;;22.67;;
6860;SDS011;3469;47.060;15.460;2022-10-18T05:08:33;28.50;;;21.70;;
6860;SDS011;3469;47.060;15.460;2022-10-18T05:11:02;27.73;;;22.77;;
6860;SDS011;3469;47.060;15.460;2022-10-18T05:13:35;26.67;;;21.27;;
6860;SDS011;3469;47.060;15.460;2022-10-18T05:16:06;33.03;;;22.57;;
6860;SDS011;3469;47.060;15.460;2022-10-18T05:18:36;24.03;;;20.93;;
6860;SDS011;3469;47.060;15.460;2022-10-18T05:21:06;26.37;;;21.30;;
6860;SDS011;3469;47.060;15.460;2022-10-18T05:23:35;28.33;;;21.07;;
6860;SDS011;3469;47.060;15.460;2022-10-18T05:26:04;27.47;;;20.93;;
6860;SDS011;3469;47.060;15.460;2022-10-18T05:28:34;27.80;;;21.77;;
6860;SDS011;3469;47.060;15.460;2022-10-18T05:31:07;30.77;;;22.47;;
6860;SDS011;3469;47.060;15.460;2022-10-18T05:33:37;28.13;;;21.50;;
6860;SDS011;3469;47.060;15.460;2022-10-18T05:36:07;30.70;;;22.70;;
6860;SDS011;3469;47.060;15.460;2022-10-18T05:38:37;28.27;;;20.80;;
6860;SDS011;3469;47.060;15.460;2022-10-18T05:41:11;28.10;;;20.77;;
6860;SDS011;3469;47.060;15.460;2022-10-18T05:43:42;26.03;;;21.10;;
6860;SDS011;3469;47.060;15.460;2022-10-18T05:46:11;26.33;;;21.57;;
6860;SDS011;3469;47.060;15.460;2022-10-18T05:48:42;27.47;;;21.77;;
6860;SDS011;3469;47.060;15.460;2022-10-18T05:51:19;28.00;;;23.20;;
6860;SDS011;3469;47.060;15.460;2022-10-18T05:53:47;29.27;;;23.13;;
6860;SDS011;3469;47.060;15.460;2022-10-18T05:56:15;37.07;;;23.67;;
6860;SDS011;3469;47.060;15.460;2022-10-18T05:58:48;26.60;;;22.33;;
6860;SDS011;3469;47.060;15.460;2022-10-18T06:01:17;31.23;;;24.80;;
6860;SDS011;3469;47.060;15.460;2022-10-18T06:03:46;33.70;;;24.83;;
6860;SDS011;3469;47.060;15.460;2022-10-18T06:06:15;37.07;;;26.53;;
6860;SDS011;3469;47.060;15.460;2022-10-18T06:08:47;33.60;;;23.97;;
6860;SDS011;3469;47.060;15.460;2022-10-18T06:11:17;28.33;;;23.60;;
6860;SDS011;3469;47.060;15.460;2022-10-18T06:13:46;33.30;;;25.73;;
6860;SDS011;3469;47.060;15.460;2022-10-18T06:16:16;32.93;;;24.90;;
6860;SDS011;3469;47.060;15.460;2022-10-18T06:18:46;29.43;;;23.10;;
6860;SDS011;3469;47.060;15.460;2022-10-18T06:21:18;30.17;;;24.37;;
6860;SDS011;3469;47.060;15.460;2022-10-18T06:23:48;28.60;;;23.40;;
6860;SDS011;3469;47.060;15.460;2022-10-18T06:26:18;33.27;;;23.23;;
6860;SDS011;3469;47.060;15.460;2022-10-18T06:28:47;34.17;;;23.07;;
6860;SDS011;3469;47.060;15.460;2022-10-18T06:31:15;31.73;;;24.30;;
6860;SDS011;3469;47.060;15.460;2022-10-18T06:33:44;35.67;;;25.17;;
6860;SDS011;3469;47.060;15.460;2022-10-18T06:36:13;35.57;;;26.23;;
6860;SDS011;3469;47.060;15.460;2022-10-18T06:38:43;39.97;;;29.10;;
6860;SDS011;3469;47.060;15.460;2022-10-18T06:41:13;37.63;;;30.13;;
6860;SDS011;3469;47.060;15.460;2022-10-18T06:43:41;43.13;;;30.07;;
6860;SDS011;3469;47.060;15.460;2022-10-18T06:46:10;39.20;;;28.30;;
6860;SDS011;3469;47.060;15.460;2022-10-18T06:48:38;38.80;;;29.90;;
6860;SDS011;3469;47.060;15.460;2022-10-18T06:51:07;35.53;;;29.30;;
6860;SDS011;3469;47.060;15.460;2022-10-18T06:53:37;35.90;;;28.30;;
6860;SDS011;3469;47.060;15.460;2022-10-18T06:56:25;38.17;;;27.90;;
6860;SDS011;3469;47.060;15.460;2022-10-18T06:58:54;43.70;;;30.50;;
6860;SDS011;3469;47.060;15.460;2022-10-18T07:01:22;41.63;;;30.07;;
6860;SDS011;3469;47.060;15.460;2022-10-18T07:03:51;38.30;;;30.40;;
6860;SDS011;3469;47.060;15.460;2022-10-18T07:06:20;46.03;;;29.97;;
6860;SDS011;3469;47.060;15.460;2022-10-18T07:08:49;36.27;;;29.87;;
6860;SDS011;3469;47.060;15.460;2022-10-18T07:11:19;34.37;;;28.13;;
6860;SDS011;3469;47.060;15.460;2022-10-18T07:13:51;38.43;;;29.67;;
6860;SDS011;3469;47.060;15.460;2022-10-18T07:16:20;41.00;;;34.90;;
6860;SDS011;3469;47.060;15.460;2022-10-18T07:18:49;40.43;;;30.00;;
6860;SDS011;3469;47.060;15.460;2022-10-18T07:21:19;43.43;;;32.07;;
6860;SDS011;3469;47.060;15.460;2022-10-18T07:23:48;38.53;;;33.83;;
6860;SDS011;3469;47.060;15.460;2022-10-18T07:26:18;39.07;;;30.37;;
6860;SDS011;3469;47.060;15.460;2022-10-18T07:28:48;43.87;;;33.63;;
6860;SDS011;3469;47.060;15.460;2022-10-18T07:31:21;42.80;;;32.70;;
6860;SDS011;3469;47.060;15.460;2022-10-18T07:33:49;46.33;;;33.73;;
6860;SDS011;3469;47.060;15.460;2022-10-18T07:36:18;44.70;;;37.17;;
6860;SDS011;3469;47.060;15.460;2022-10-18T07:38:47;43.77;;;36.20;;
6860;SDS011;3469;47.060;15.460;2022-10-18T07:41:17;42.83;;;34.37;;
6860;SDS011;3469;47.060;15.460;2022-10-18T07:43:46;50.10;;;37.67;;
6860;SDS011;3469;47.060;15.460;2022-10-18T07:46:18;48.43;;;39.33;;
6860;SDS011;3469;47.060;15.460;2022-10-18T07:48:50;56.80;;;43.93;;
6860;SDS011;3469;47.060;15.460;2022-10-18T07:51:18;60.57;;;43.73;;
6860;SDS011;3469;47.060;15.460;2022-10-18T07:53:47;60.40;;;43.50;;
6860;SDS011;3469;47.060;15.460;2022-10-18T07:56:17;54.50;;;41.40;;
6860;SDS011;3469;47.060;15.460;2022-10-18T07:58:47;43.27;;;34.47;;
6860;SDS011;3469;47.060;15.460;2022-10-18T08:01:20;28.70;;;24.33;;
6860;SDS011;3469;47.060;15.460;2022-10-18T08:03:49;29.43;;;22.60;;
6860;SDS011;3469;47.060;15.460;2022-10-18T08:06:18;25.13;;;21.63;;
6860;SDS011;3469;47.060;15.460;2022-10-18T08:08:47;26.00;;;22.50;;
6860;SDS011;3469;47.060;15.460;2022-10-18T08:11:16;27.03;;;21.83;;
6860;SDS011;3469;47.060;15.460;2022-10-18T08:13:45;24.67;;;21.73;;
6860;SDS011;3469;47.060;15.460;2022-10-18T08:16:15;26.30;;;22.67;;
6860;SDS011;3469;47.060;15.460;2022-10-18T08:18:46;25.17;;;22.10;;
6860;SDS011;3469;47.060;15.460;2022-10-18T08:21:15;27.80;;;22.50;;
6860;SDS011;3469;47.060;15.460;2022-10-18T08:23:44;28.07;;;22.37;;
6860;SDS011;3469;47.060;15.460;2022-10-18T08:26:13;29.80;;;22.63;;
6860;SDS011;3469;47.060;15.460;2022-10-18T08:28:43;29.50;;;22.07;;
6860;SDS011;3469;47.060;15.460;2022-10-18T08:31:29;30.60;;;22.83;;
6860;SDS011;3469;47.060;15.460;2022-10-18T08:33:59;27.07;;;22.10;;
6860;SDS011;3469;47.060;15.460;2022-10-18T08:36:27;25.63;;;21.60;;
6860;SDS011;3469;47.060;15.460;2022-10-18T08:38:55;26.53;;;21.93;;
6860;SDS011;3469;47.060;15.460;2022-10-18T08:41:31;25.23;;;21.70;;
6860;SDS011;3469;47.060;15.460;2022-10-18T08:44:16;25.20;;;22.03;;
6860;SDS011;3469;47.060;15.460;2022-10-18T08:46:46;23.93;;;20.37;;
6860;SDS011;3469;47.060;15.460;2022-10-18T08:49:20;30.30;;;23.37;;
6860;SDS011;3469;47.060;15.460;2022-10-18T08:51:52;26.97;;;23.63;;
6860;SDS011;3469;47.060;15.460;2022-10-18T08:54:21;25.57;;;21.97;;
6860;SDS011;3469;47.060;15.460;2022-10-18T08:56:56;27.37;;;20.73;;
6860;SDS011;3469;47.060;15.460;2022-10-18T08:59:28;24.60;;;20.63;;
6860;SDS011;3469;47.060;15.460;2022-10-18T09:02:03;25.80;;;21.23;;
6860;SDS011;3469;47.060;15.460;2022-10-18T09:04:39;29.43;;;21.27;;
6860;SDS011;3469;47.060;15.460;2022-10-18T09:07:32;30.90;;;21.20;;
6860;SDS011;3469;47.060;15.460;2022-10-18T09:10:12;28.00;;;21.73;;
6860;SDS011;3469;47.060;15.460;2022-10-18T09:12:56;30.47;;;22.73;;
6860;SDS011;3469;47.060;15.460;2022-10-18T09:15:33;36.10;;;20.70;;
6860;SDS011;3469;47.060;15.460;2022-10-18T09:18:10;27.17;;;22.10;;
6860;SDS011;3469;47.060;15.460;2022-10-18T09:20:49;25.90;;;20.40;;
6860;SDS011;3469;47.060;15.460;2022-10-18T09:23:20;23.30;;;20.63;;
6860;SDS011;3469;47.060;15.460;2022-10-18T09:25:51;24.10;;;20.57;;
6860;SDS011;3469;47.060;15.460;2022-10-18T09:28:26;27.83;;;20.77;;
6860;SDS011;3469;47.060;15.460;2022-10-18T09:31:01;24.27;;;20.30;;
6860;SDS011;3469;47.060;15.460;2022-10-18T09:33:38;23.60;;;20.43;;
6860;SDS011;3469;47.060;15.460;2022-10-18T09:36:15;22.90;;;20.30;;
6860;SDS011;3469;47.060;15.460;2022-10-18T09:38:47;22.17;;;19.67;;
6860;SDS011;3469;47.060;15.460;2022-10-18T09:41:18;26.00;;;23.20;;
6860;SDS011;3469;47.060;15.460;2022-10-18T09:43:51;23.07;;;19.47;;
6860;SDS011;3469;47.060;15.460;2022-10-18T09:46:24;22.00;;;19.57;;
6860;SDS011;3469;47.060;15.460;2022-10-18T09:48:55;25.37;;;19.43;;
6860;SDS011;3469;47.060;15.460;2022-10-18T09:51:29;22.20;;;19.50;;
6860;SDS011;3469;47.060;15.460;2022-10-18T09:54:02;24.80;;;20.07;;
6860;SDS011;3469;47.060;15.460;2022-10-18T09:56:36;23.60;;;18.90;;
6860;SDS011;3469;47.060;15.460;2022-10-18T09:59:10;24.43;;;21.17;;
6860;SDS011;3469;47.060;15.460;2022-10-18T10:02:02;21.10;;;18.87;;
6860;SDS011;3469;47.060;15.460;2022-10-18T10:04:31;20.80;;;17.97;;
6860;SDS011;3469;47.060;15.460;2022-10-18T10:07:01;22.33;;;19.57;;
6860;SDS011;3469;47.060;15.460;2022-10-18T10:09:36;24.80;;;20.47;;
6860;SDS011;3469;47.060;15.460;2022-10-18T10:12:22;22.10;;;19.63;;
6860;SDS011;3469;47.060;15.460;2022-10-18T10:14:53;24.63;;;19.90;;
6860;SDS011;3469;47.060;15.460;2022-10-18T10:17:23;23.30;;;20.70;;
6860;SDS011;3469;47.060;15.460;2022-10-18T10:19:56;22.93;;;18.90;;
6860;SDS011;3469;47.060;15.460;2022-10-18T10:22:30;30.10;;;20.70;;
6860;SDS011;3469;47.060;15.460;2022-10-18T10:25:02;21.23;;;18.63;;
6860;SDS011;3469;47.060;15.460;2022-10-18T10:27:32;21.83;;;18.20;;
6860;SDS011;3469;47.060;15.460;2022-10-18T10:30:19;21.93;;;19.63;;
6860;SDS011;3469;47.060;15.460;2022-10-18T10:32:50;23.63;;;20.53;;
6860;SDS011;3469;47.060;15.460;2022-10-18T10:35:23;22.93;;;19.60;;
6860;SDS011;3469;47.060;15.460;2022-10-18T10:38:22;20.13;;;18.03;;
6860;SDS011;3469;47.060;15.460;2022-10-18T10:40:51;22.27;;;18.57;;
6860;SDS011;3469;47.060;15.460;2022-10-18T10:43:21;19.53;;;17.30;;
6860;SDS011;3469;47.060;15.460;2022-10-18T10:46:05;20.43;;;18.27;;
6860;SDS011;3469;47.060;15.460;2022-10-18T10:48:38;20.23;;;18.20;;
6860;SDS011;3469;47.060;15.460;2022-10-18T10:51:11;21.40;;;18.60;;
6860;SDS011;3469;47.060;15.460;2022-10-18T10:53:43;21.33;;;19.07;;
6860;SDS011;3469;47.060;15.460;2022-10-18T10:56:19;22.47;;;17.90;;
6860;SDS011;3469;47.060;15.460;2022-10-18T10:58:50;20.60;;;18.57;;
6860;SDS011;3469;47.060;15.460;2022-10-18T11:01:20;18.90;;;17.00;;
6860;SDS011;3469;47.060;15.460;2022-10-18T11:03:55;23.07;;;18.07;;
6860;SDS011;3469;47.060;15.460;2022-10-18T11:06:33;23.00;;;18.00;;
6860;SDS011;3469;47.060;15.460;2022-10-18T11:09:23;19.43;;;17.27;;
6860;SDS011;3469;47.060;15.460;2022-10-18T11:11:57;21.47;;;16.53;;
6860;SDS011;3469;47.060;15.460;2022-10-18T11:14:31;18.93;;;16.70;;
6860;SDS011;3469;47.060;15.460;2022-10-18T11:17:06;19.67;;;17.67;;
6860;SDS011;3469;47.060;15.460;2022-10-18T11:22:27;20.20;;;17.20;;
6860;SDS011;3469;47.060;15.460;2022-10-18T11:25:02;21.83;;;16.77;;
6860;SDS011;3469;47.060;15.460;2022-10-18T11:27:31;19.13;;;17.13;;
6860;SDS011;3469;47.060;15.460;2022-10-18T11:30:13;20.07;;;18.10;;
6860;SDS011;3469;47.060;15.460;2022-10-18T11:32:51;19.97;;;17.87;;
6860;SDS011;3469;47.060;15.460;2022-10-18T11:35:30;18.70;;;16.63;;
6860;SDS011;3469;47.060;15.460;2022-10-18T11:38:05;18.93;;;16.93;;
6860;SDS011;3469;47.060;15.460;2022-10-18T11:43:55;18.30;;;16.07;;
6860;SDS011;3469;47.060;15.460;2022-10-18T11:46:32;18.77;;;16.87;;
6860;SDS011;3469;47.060;15.460;2022-10-18T11:49:10;19.70;;;16.57;;
6860;SDS011;3469;47.060;15.460;2022-10-18T11:51:49;16.77;;;14.97;;
6860;SDS011;3469;47.060;15.460;2022-10-18T11:54:40;19.20;;;15.73;;
6860;SDS011;3469;47.060;15.460;2022-10-18T11:57:34;18.10;;;16.20;;
6860;SDS011;3469;47.060;15.460;2022-10-18T12:00:14;20.00;;;16.90;;
6860;SDS011;3469;47.060;15.460;2022-10-18T12:02:56;17.83;;;16.03;;
6860;SDS011;3469;47.060;15.460;2022-10-18T12:05:34;17.47;;;15.77;;
6860;SDS011;3469;47.060;15.460;2022-10-18T12:08:04;20.50;;;16.53;;
6860;SDS011;3469;47.060;15.460;2022-10-18T12:10:36;16.53;;;14.83;;
6860;SDS011;3469;47.060;15.460;2022-10-18T12:13:32;19.63;;;15.73;;
6860;SDS011;3469;47.060;15.460;2022-10-18T12:16:05;16.53;;;14.83;;
6860;SDS011;3469;47.060;15.460;2022-10-18T12:18:35;17.57;;;14.57;;
6860;SDS011;3469;47.060;15.460;2022-10-18T12:21:21;16.33;;;14.17;;
6860;SDS011;3469;47.060;15.460;2022-10-18T12:23:53;22.10;;;16.30;;
6860;SDS011;3469;47.060;15.460;2022-10-18T12:26:24;16.47;;;14.73;;
6860;SDS011;3469;47.060;15.460;2022-10-18T12:31:45;15.90;;;14.30;;
6860;SDS011;3469;47.060;15.460;2022-10-18T12:37:06;18.60;;;15.50;;
6860;SDS011;3469;47.060;15.460;2022-10-18T12:39:57;20.80;;;15.20;;
6860;SDS011;3469;47.060;15.460;2022-10-18T12:42:39;18.07;;;14.53;;
6860;SDS011;3469;47.060;15.460;2022-10-18T12:45:18;20.50;;;14.47;;
6860;SDS011;3469;47.060;15.460;2022-10-18T12:47:52;16.90;;;14.30;;
6860;SDS011;3469;47.060;15.460;2022-10-18T12:50:25;14.47;;;12.97;;
6860;SDS011;3469;47.060;15.460;2022-10-18T12:53:00;16.87;;;15.23;;
6860;SDS011;3469;47.060;15.460;2022-10-18T12:55:31;17.20;;;15.40;;
6860;SDS011;3469;47.060;15.460;2022-10-18T12:58:04;16.30;;;14.70;;
6860;SDS011;3469;47.060;15.460;2022-10-18T13:00:53;16.27;;;14.63;;
6860;SDS011;3469;47.060;15.460;2022-10-18T13:03:41;15.93;;;14.33;;
6860;SDS011;3469;47.060;15.460;2022-10-18T13:06:18;15.83;;;14.17;;
6860;SDS011;3469;47.060;15.460;2022-10-18T13:08:47;18.23;;;13.80;;
6860;SDS011;3469;47.060;15.460;2022-10-18T13:11:50;16.50;;;14.80;;
6860;SDS011;3469;47.060;15.460;2022-10-18T13:14:28;15.70;;;14.00;;
6860;SDS011;3469;47.060;15.460;2022-10-18T13:17:22;15.23;;;13.63;;
6860;SDS011;3469;47.060;15.460;2022-10-18T13:19:56;15.90;;;14.13;;
6860;SDS011;3469;47.060;15.460;2022-10-18T13:22:52;17.07;;;15.40;;
6860;SDS011;3469;47.060;15.460;2022-10-18T13:25:28;16.10;;;14.50;;
6860;SDS011;3469;47.060;15.460;2022-10-18T13:28:04;15.87;;;14.17;;
6860;SDS011;3469;47.060;15.460;2022-10-18T13:30:47;15.93;;;14.33;;
6860;SDS011;3469;47.060;15.460;2022-10-18T13:33:28;16.90;;;15.10;;
6860;SDS011;3469;47.060;15.460;2022-10-18T13:36:02;17.90;;;14.20;;
6860;SDS011;3469;47.060;15.460;2022-10-18T13:38:36;19.97;;;15.10;;
6860;SDS011;3469;47.060;15.460;2022-10-18T13:41:13;13.53;;;12.17;;
6860;SDS011;3469;47.060;15.460;2022-10-18T13:43:46;17.03;;;15.20;;
6860;SDS011;3469;47.060;15.460;2022-10-18T13:50:02;15.53;;;13.97;;
6860;SDS011;3469;47.060;15.460;2022-10-18T13:59:01;16.83;;;13.60;;
6860;SDS011;3469;47.060;15.460;2022-10-18T14:01:44;16.07;;;14.10;;
6860;SDS011;3469;47.060;15.460;2022-10-18T14:07:42;17.07;;;15.10;;
6860;SDS011;3469;47.060;15.460;2022-10-18T14:10:13;17.83;;;16.00;;
6860;SDS011;3469;47.060;15.460;2022-10-18T14:13:14;16.30;;;14.60;;
6860;SDS011;3469;47.060;15.460;2022-10-18T14:15:47;16.53;;;13.93;;
6860;SDS011;3469;47.060;15.460;2022-10-18T14:18:17;15.97;;;14.40;;
6860;SDS011;3469;47.060;15.460;2022-10-18T14:20:50;16.30;;;14.70;;
6860;SDS011;3469;47.060;15.460;2022-10-18T14:23:39;15.27;;;13.60;;
6860;SDS011;3469;47.060;15.460;2022-10-18T14:26:12;16.00;;;14.40;;
6860;SDS011;3469;47.060;15.460;2022-10-18T14:28:43;15.30;;;13.70;;
6860;SDS011;3469;47.060;15.460;2022-10-18T14:31:26;17.23;;;15.00;;
6860;SDS011;3469;47.060;15.460;2022-10-18T14:33:56;15.83;;;14.13;;
6860;SDS011;3469;47.060;15.460;2022-10-18T14:36:25;16.20;;;13.97;;
6860;SDS011;3469;47.060;15.460;2022-10-18T14:38:54;16.93;;;15.13;;
6860;SDS011;3469;47.060;15.460;2022-10-18T14:41:25;19.60;;;14.97;;
6860;SDS011;3469;47.060;15.460;2022-10-18T14:46:47;15.20;;;13.60;;
6860;SDS011;3469;47.060;15.460;2022-10-18T14:49:16;19.93;;;14.13;;
6860;SDS011;3469;47.060;15.460;2022-10-18T14:51:46;16.03;;;14.43;;
6860;SDS011;3469;47.060;15.460;2022-10-18T14:54:27;16.63;;;14.90;;
6860;SDS011;3469;47.060;15.460;2022-10-18T14:56:58;17.33;;;14.77;;
6860;SDS011;3469;47.060;15.460;2022-10-18T14:59:28;18.33;;;13.83;;
6860;SDS011;3469;47.060;15.460;2022-10-18T15:02:00;19.17;;;15.90;;
6860;SDS011;3469;47.060;15.460;2022-10-18T15:04:30;15.97;;;14.37;;
6860;SDS011;3469;47.060;15.460;2022-10-18T15:06:59;17.83;;;14.10;;
6860;SDS011;3469;47.060;15.460;2022-10-18T15:09:28;18.23;;;14.13;;
6860;SDS011;3469;47.060;15.460;2022-10-18T15:11:57;18.50;;;15.23;;
6860;SDS011;3469;47.060;15.460;2022-10-18T15:14:26;18.27;;;15.27;;
6860;SDS011;3469;47.060;15.460;2022-10-18T15:16:58;17.23;;;15.07;;
6860;SDS011;3469;47.060;15.460;2022-10-18T15:19:31;18.97;;;14.13;;
6860;SDS011;3469;47.060;15.460;2022-10-18T15:22:00;20.70;;;14.83;;
6860;SDS011;3469;47.060;15.460;2022-10-18T15:25:08;17.53;;;15.67;;
6860;SDS011;3469;47.060;15.460;2022-10-18T15:27:40;17.47;;;15.20;;
6860;SDS011;3469;47.060;15.460;2022-10-18T15:30:17;17.50;;;14.73;;
6860;SDS011;3469;47.060;15.460;2022-10-18T15:32:48;16.33;;;14.63;;
6860;SDS011;3469;47.060;15.460;2022-10-18T15:35:19;16.90;;;15.10;;
6860;SDS011;3469;47.060;15.460;2022-10-18T15:37:52;21.30;;;16.10;;